Great Horkesley, United Kingdom
Current Conditions -  °F | °C
As of 9:50 PM on Wednesday 22 Oct 2014 (Local Time) from EGUW Reporting Station
Broken Clouds Broken Clouds  
Wind Chill: 46°   Ceiling: 3200
Heat Index: 48°   Visibility: 6mi
Dew Point: 45°   Wind: 6mph
Humidity: 87%   Direction: 230°SW
Pressure: 30.18"   Gusts: NA
Location:  51.94°N, 0.88°E
Report Text: EGUW 222050Z 23005KT 9999 FEW024 BKN032 09/07 Q1022 BLU NOSIG
Loading
Personal Weather Stations






























Interactive Weather Map
Tropical Storm Tracking
New forecast layout! Learn more

10-Day Weather Forecast

Advertisements
Track Severe Weather on mobile